sensor_id;sensor_type;location;lat;lon;timestamp;P1;durP1;ratioP1;P2;durP2;ratioP2
4533;SDS011;2279;51.448;7.306;2023-07-24T00:01:55;5.23;;;4.53;;
4533;SDS011;2279;51.448;7.306;2023-07-24T00:04:20;4.30;;;3.90;;
4533;SDS011;2279;51.448;7.306;2023-07-24T00:06:46;4.17;;;3.73;;
4533;SDS011;2279;51.448;7.306;2023-07-24T00:09:12;5.20;;;4.30;;
4533;SDS011;2279;51.448;7.306;2023-07-24T00:11:38;4.33;;;4.03;;
4533;SDS011;2279;51.448;7.306;2023-07-24T00:14:04;4.10;;;3.80;;
4533;SDS011;2279;51.448;7.306;2023-07-24T00:16:30;5.57;;;4.60;;
4533;SDS011;2279;51.448;7.306;2023-07-24T00:18:56;3.90;;;3.60;;
4533;SDS011;2279;51.448;7.306;2023-07-24T00:21:22;6.00;;;4.40;;
4533;SDS011;2279;51.448;7.306;2023-07-24T00:23:48;3.73;;;3.43;;
4533;SDS011;2279;51.448;7.306;2023-07-24T00:26:14;4.20;;;3.80;;
4533;SDS011;2279;51.448;7.306;2023-07-24T00:28:40;3.70;;;3.40;;
4533;SDS011;2279;51.448;7.306;2023-07-24T00:31:06;4.27;;;3.97;;
4533;SDS011;2279;51.448;7.306;2023-07-24T00:33:32;5.37;;;4.20;;
4533;SDS011;2279;51.448;7.306;2023-07-24T00:35:58;4.53;;;4.13;;
4533;SDS011;2279;51.448;7.306;2023-07-24T00:38:24;4.93;;;4.30;;
4533;SDS011;2279;51.448;7.306;2023-07-24T00:40:50;4.63;;;4.10;;
4533;SDS011;2279;51.448;7.306;2023-07-24T00:43:16;4.60;;;4.00;;
4533;SDS011;2279;51.448;7.306;2023-07-24T00:45:42;5.50;;;4.27;;
4533;SDS011;2279;51.448;7.306;2023-07-24T00:48:08;6.93;;;4.27;;
4533;SDS011;2279;51.448;7.306;2023-07-24T00:50:35;6.13;;;4.13;;
4533;SDS011;2279;51.448;7.306;2023-07-24T00:53:01;5.43;;;4.50;;
4533;SDS011;2279;51.448;7.306;2023-07-24T00:55:27;4.27;;;3.83;;
4533;SDS011;2279;51.448;7.306;2023-07-24T00:57:53;4.00;;;3.60;;
4533;SDS011;2279;51.448;7.306;2023-07-24T01:00:19;5.10;;;3.80;;
4533;SDS011;2279;51.448;7.306;2023-07-24T01:02:45;4.23;;;3.83;;
4533;SDS011;2279;51.448;7.306;2023-07-24T01:05:12;4.70;;;4.23;;
4533;SDS011;2279;51.448;7.306;2023-07-24T01:07:40;4.07;;;3.77;;
4533;SDS011;2279;51.448;7.306;2023-07-24T01:10:06;3.90;;;3.53;;
4533;SDS011;2279;51.448;7.306;2023-07-24T01:12:35;4.17;;;3.80;;
4533;SDS011;2279;51.448;7.306;2023-07-24T01:15:16;4.30;;;3.90;;
4533;SDS011;2279;51.448;7.306;2023-07-24T01:17:46;5.50;;;3.50;;
4533;SDS011;2279;51.448;7.306;2023-07-24T01:20:13;6.03;;;4.13;;
4533;SDS011;2279;51.448;7.306;2023-07-24T01:25:33;8.50;;;4.87;;
4533;SDS011;2279;51.448;7.306;2023-07-24T01:28:00;7.70;;;3.80;;
4533;SDS011;2279;51.448;7.306;2023-07-24T01:30:26;6.23;;;4.07;;
4533;SDS011;2279;51.448;7.306;2023-07-24T01:32:52;5.33;;;3.60;;
4533;SDS011;2279;51.448;7.306;2023-07-24T01:35:18;4.30;;;3.70;;
4533;SDS011;2279;51.448;7.306;2023-07-24T01:37:44;3.00;;;2.80;;
4533;SDS011;2279;51.448;7.306;2023-07-24T01:40:12;4.93;;;3.70;;
4533;SDS011;2279;51.448;7.306;2023-07-24T01:42:38;3.90;;;3.60;;
4533;SDS011;2279;51.448;7.306;2023-07-24T01:45:05;4.20;;;3.80;;
4533;SDS011;2279;51.448;7.306;2023-07-24T01:47:31;3.97;;;3.67;;
4533;SDS011;2279;51.448;7.306;2023-07-24T01:49:57;4.20;;;3.80;;
4533;SDS011;2279;51.448;7.306;2023-07-24T01:52:23;5.43;;;4.10;;
4533;SDS011;2279;51.448;7.306;2023-07-24T01:54:49;5.17;;;4.10;;
4533;SDS011;2279;51.448;7.306;2023-07-24T01:57:15;4.30;;;3.50;;
4533;SDS011;2279;51.448;7.306;2023-07-24T01:59:41;3.90;;;3.50;;
4533;SDS011;2279;51.448;7.306;2023-07-24T02:02:08;5.23;;;3.90;;
4533;SDS011;2279;51.448;7.306;2023-07-24T02:04:34;3.90;;;3.60;;
4533;SDS011;2279;51.448;7.306;2023-07-24T02:07:00;4.47;;;4.03;;
4533;SDS011;2279;51.448;7.306;2023-07-24T02:09:26;4.90;;;4.10;;
4533;SDS011;2279;51.448;7.306;2023-07-24T02:11:53;5.77;;;3.70;;
4533;SDS011;2279;51.448;7.306;2023-07-24T02:14:19;9.20;;;4.17;;
4533;SDS011;2279;51.448;7.306;2023-07-24T02:16:45;4.63;;;3.40;;
4533;SDS011;2279;51.448;7.306;2023-07-24T02:19:11;3.83;;;3.53;;
4533;SDS011;2279;51.448;7.306;2023-07-24T02:21:37;3.97;;;3.57;;
4533;SDS011;2279;51.448;7.306;2023-07-24T02:24:05;5.00;;;4.00;;
4533;SDS011;2279;51.448;7.306;2023-07-24T02:26:31;4.53;;;4.13;;
4533;SDS011;2279;51.448;7.306;2023-07-24T02:28:57;4.93;;;4.50;;
4533;SDS011;2279;51.448;7.306;2023-07-24T02:31:23;4.13;;;3.83;;
4533;SDS011;2279;51.448;7.306;2023-07-24T02:33:49;9.10;;;4.53;;
4533;SDS011;2279;51.448;7.306;2023-07-24T02:36:15;4.87;;;4.37;;
4533;SDS011;2279;51.448;7.306;2023-07-24T02:38:41;4.53;;;4.13;;
4533;SDS011;2279;51.448;7.306;2023-07-24T02:41:07;5.10;;;4.60;;
4533;SDS011;2279;51.448;7.306;2023-07-24T02:43:33;4.97;;;4.17;;
4533;SDS011;2279;51.448;7.306;2023-07-24T02:46:02;6.20;;;5.00;;
4533;SDS011;2279;51.448;7.306;2023-07-24T02:48:28;8.93;;;5.17;;
4533;SDS011;2279;51.448;7.306;2023-07-24T02:50:54;6.87;;;4.70;;
4533;SDS011;2279;51.448;7.306;2023-07-24T02:53:20;5.80;;;4.97;;
4533;SDS011;2279;51.448;7.306;2023-07-24T02:55:46;5.63;;;4.93;;
4533;SDS011;2279;51.448;7.306;2023-07-24T02:58:12;4.93;;;4.43;;
4533;SDS011;2279;51.448;7.306;2023-07-24T03:00:38;6.83;;;5.13;;
4533;SDS011;2279;51.448;7.306;2023-07-24T03:03:04;6.37;;;5.60;;
4533;SDS011;2279;51.448;7.306;2023-07-24T03:05:31;6.07;;;5.00;;
4533;SDS011;2279;51.448;7.306;2023-07-24T03:07:56;7.10;;;4.67;;
4533;SDS011;2279;51.448;7.306;2023-07-24T03:10:23;5.00;;;4.60;;
4533;SDS011;2279;51.448;7.306;2023-07-24T03:12:49;6.20;;;4.67;;
4533;SDS011;2279;51.448;7.306;2023-07-24T03:15:15;7.80;;;4.97;;
4533;SDS011;2279;51.448;7.306;2023-07-24T03:17:41;7.00;;;5.13;;
4533;SDS011;2279;51.448;7.306;2023-07-24T03:20:07;7.03;;;4.80;;
4533;SDS011;2279;51.448;7.306;2023-07-24T03:22:34;5.87;;;5.17;;
4533;SDS011;2279;51.448;7.306;2023-07-24T03:25:00;7.90;;;5.83;;
4533;SDS011;2279;51.448;7.306;2023-07-24T03:27:26;5.90;;;4.70;;
4533;SDS011;2279;51.448;7.306;2023-07-24T03:29:51;7.77;;;5.10;;
4533;SDS011;2279;51.448;7.306;2023-07-24T03:32:17;6.40;;;5.77;;
4533;SDS011;2279;51.448;7.306;2023-07-24T03:34:43;7.27;;;5.47;;
4533;SDS011;2279;51.448;7.306;2023-07-24T03:37:09;5.50;;;4.90;;
4533;SDS011;2279;51.448;7.306;2023-07-24T03:39:35;10.40;;;4.73;;
4533;SDS011;2279;51.448;7.306;2023-07-24T03:42:01;5.43;;;4.93;;
4533;SDS011;2279;51.448;7.306;2023-07-24T03:44:29;7.33;;;5.53;;
4533;SDS011;2279;51.448;7.306;2023-07-24T03:46:55;5.87;;;5.27;;
4533;SDS011;2279;51.448;7.306;2023-07-24T03:49:22;5.80;;;5.30;;
4533;SDS011;2279;51.448;7.306;2023-07-24T03:51:48;7.93;;;5.60;;
4533;SDS011;2279;51.448;7.306;2023-07-24T03:54:14;8.47;;;5.23;;
4533;SDS011;2279;51.448;7.306;2023-07-24T03:56:40;9.50;;;5.47;;
4533;SDS011;2279;51.448;7.306;2023-07-24T03:59:06;6.50;;;5.33;;
4533;SDS011;2279;51.448;7.306;2023-07-24T04:01:33;7.03;;;5.30;;
4533;SDS011;2279;51.448;7.306;2023-07-24T04:04:09;22.07;;;6.87;;
4533;SDS011;2279;51.448;7.306;2023-07-24T04:06:35;5.53;;;4.87;;
4533;SDS011;2279;51.448;7.306;2023-07-24T04:09:02;5.83;;;5.23;;
4533;SDS011;2279;51.448;7.306;2023-07-24T04:11:28;5.97;;;5.03;;
4533;SDS011;2279;51.448;7.306;2023-07-24T04:13:54;8.90;;;6.10;;
4533;SDS011;2279;51.448;7.306;2023-07-24T04:16:20;6.20;;;4.80;;
4533;SDS011;2279;51.448;7.306;2023-07-24T04:18:46;9.50;;;5.27;;
4533;SDS011;2279;51.448;7.306;2023-07-24T04:21:12;6.53;;;5.30;;
4533;SDS011;2279;51.448;7.306;2023-07-24T04:23:41;6.43;;;4.97;;
4533;SDS011;2279;51.448;7.306;2023-07-24T04:26:07;5.93;;;5.37;;
4533;SDS011;2279;51.448;7.306;2023-07-24T04:28:33;9.70;;;5.20;;
4533;SDS011;2279;51.448;7.306;2023-07-24T04:30:59;8.30;;;5.50;;
4533;SDS011;2279;51.448;7.306;2023-07-24T04:33:26;10.00;;;5.97;;
4533;SDS011;2279;51.448;7.306;2023-07-24T04:35:54;9.47;;;5.90;;
4533;SDS011;2279;51.448;7.306;2023-07-24T04:38:20;8.53;;;5.33;;
4533;SDS011;2279;51.448;7.306;2023-07-24T04:40:46;7.23;;;6.00;;
4533;SDS011;2279;51.448;7.306;2023-07-24T04:43:13;10.47;;;5.57;;
4533;SDS011;2279;51.448;7.306;2023-07-24T04:45:39;8.13;;;5.60;;
4533;SDS011;2279;51.448;7.306;2023-07-24T04:48:05;13.20;;;5.40;;
4533;SDS011;2279;51.448;7.306;2023-07-24T04:50:31;7.80;;;5.00;;
4533;SDS011;2279;51.448;7.306;2023-07-24T04:52:58;5.87;;;4.90;;
4533;SDS011;2279;51.448;7.306;2023-07-24T04:55:24;7.50;;;5.33;;
4533;SDS011;2279;51.448;7.306;2023-07-24T04:57:50;5.77;;;5.00;;
4533;SDS011;2279;51.448;7.306;2023-07-24T05:00:16;6.13;;;5.53;;
4533;SDS011;2279;51.448;7.306;2023-07-24T05:02:42;11.87;;;5.57;;
4533;SDS011;2279;51.448;7.306;2023-07-24T05:05:08;6.80;;;5.70;;
4533;SDS011;2279;51.448;7.306;2023-07-24T05:07:34;6.67;;;4.90;;
4533;SDS011;2279;51.448;7.306;2023-07-24T05:10:01;7.13;;;5.60;;
4533;SDS011;2279;51.448;7.306;2023-07-24T05:12:27;8.17;;;5.80;;
4533;SDS011;2279;51.448;7.306;2023-07-24T05:14:53;8.77;;;5.70;;
4533;SDS011;2279;51.448;7.306;2023-07-24T05:17:19;9.97;;;5.10;;
4533;SDS011;2279;51.448;7.306;2023-07-24T05:19:45;7.40;;;5.87;;
4533;SDS011;2279;51.448;7.306;2023-07-24T05:22:11;6.90;;;5.53;;
4533;SDS011;2279;51.448;7.306;2023-07-24T05:24:37;7.60;;;5.60;;
4533;SDS011;2279;51.448;7.306;2023-07-24T05:27:04;8.80;;;5.83;;
4533;SDS011;2279;51.448;7.306;2023-07-24T05:29:30;10.20;;;6.40;;
4533;SDS011;2279;51.448;7.306;2023-07-24T05:31:56;6.70;;;5.83;;
4533;SDS011;2279;51.448;7.306;2023-07-24T05:34:25;8.93;;;5.70;;
4533;SDS011;2279;51.448;7.306;2023-07-24T05:36:52;18.63;;;8.27;;
4533;SDS011;2279;51.448;7.306;2023-07-24T05:39:18;7.67;;;6.23;;
4533;SDS011;2279;51.448;7.306;2023-07-24T05:41:44;8.90;;;6.37;;
4533;SDS011;2279;51.448;7.306;2023-07-24T05:44:10;7.43;;;5.67;;
4533;SDS011;2279;51.448;7.306;2023-07-24T05:46:36;7.97;;;6.50;;
4533;SDS011;2279;51.448;7.306;2023-07-24T05:49:02;12.60;;;6.30;;
4533;SDS011;2279;51.448;7.306;2023-07-24T05:51:28;9.37;;;6.40;;
4533;SDS011;2279;51.448;7.306;2023-07-24T05:53:54;10.43;;;7.10;;
4533;SDS011;2279;51.448;7.306;2023-07-24T05:56:20;9.10;;;6.03;;
4533;SDS011;2279;51.448;7.306;2023-07-24T05:58:46;9.20;;;6.20;;
4533;SDS011;2279;51.448;7.306;2023-07-24T06:01:12;10.47;;;7.00;;
4533;SDS011;2279;51.448;7.306;2023-07-24T06:03:40;11.57;;;5.80;;
4533;SDS011;2279;51.448;7.306;2023-07-24T06:06:06;13.03;;;6.70;;
4533;SDS011;2279;51.448;7.306;2023-07-24T06:08:32;9.83;;;7.43;;
4533;SDS011;2279;51.448;7.306;2023-07-24T06:10:58;9.03;;;6.57;;
4533;SDS011;2279;51.448;7.306;2023-07-24T06:13:25;6.90;;;5.50;;
4533;SDS011;2279;51.448;7.306;2023-07-24T06:15:51;9.27;;;5.30;;
4533;SDS011;2279;51.448;7.306;2023-07-24T06:18:17;16.30;;;6.03;;
4533;SDS011;2279;51.448;7.306;2023-07-24T06:20:44;8.83;;;5.67;;
4533;SDS011;2279;51.448;7.306;2023-07-24T06:23:10;7.47;;;5.80;;
4533;SDS011;2279;51.448;7.306;2023-07-24T06:25:36;9.80;;;6.07;;
4533;SDS011;2279;51.448;7.306;2023-07-24T06:28:01;8.60;;;5.93;;
4533;SDS011;2279;51.448;7.306;2023-07-24T06:30:29;8.70;;;5.13;;
4533;SDS011;2279;51.448;7.306;2023-07-24T06:32:55;9.97;;;6.20;;
4533;SDS011;2279;51.448;7.306;2023-07-24T06:35:21;11.23;;;6.13;;
4533;SDS011;2279;51.448;7.306;2023-07-24T06:37:47;9.03;;;6.80;;
4533;SDS011;2279;51.448;7.306;2023-07-24T06:40:13;13.00;;;5.40;;
4533;SDS011;2279;51.448;7.306;2023-07-24T06:42:39;8.63;;;6.33;;
4533;SDS011;2279;51.448;7.306;2023-07-24T06:45:05;9.13;;;6.17;;
4533;SDS011;2279;51.448;7.306;2023-07-24T06:47:31;12.40;;;6.13;;
4533;SDS011;2279;51.448;7.306;2023-07-24T06:49:57;17.50;;;6.93;;
4533;SDS011;2279;51.448;7.306;2023-07-24T06:52:23;9.43;;;7.20;;
4533;SDS011;2279;51.448;7.306;2023-07-24T06:54:49;8.90;;;6.53;;
4533;SDS011;2279;51.448;7.306;2023-07-24T06:57:15;12.07;;;7.37;;
4533;SDS011;2279;51.448;7.306;2023-07-24T06:59:41;7.67;;;6.03;;
4533;SDS011;2279;51.448;7.306;2023-07-24T07:02:08;9.10;;;6.13;;
4533;SDS011;2279;51.448;7.306;2023-07-24T07:04:34;7.23;;;5.77;;
4533;SDS011;2279;51.448;7.306;2023-07-24T07:07:01;6.43;;;5.60;;
4533;SDS011;2279;51.448;7.306;2023-07-24T07:09:26;9.37;;;5.97;;
4533;SDS011;2279;51.448;7.306;2023-07-24T07:11:53;8.40;;;6.40;;
4533;SDS011;2279;51.448;7.306;2023-07-24T07:14:19;6.60;;;6.00;;
4533;SDS011;2279;51.448;7.306;2023-07-24T07:16:44;9.33;;;6.90;;
4533;SDS011;2279;51.448;7.306;2023-07-24T07:19:12;9.07;;;6.93;;
4533;SDS011;2279;51.448;7.306;2023-07-24T07:21:38;7.63;;;5.40;;
4533;SDS011;2279;51.448;7.306;2023-07-24T07:24:04;9.07;;;5.97;;
4533;SDS011;2279;51.448;7.306;2023-07-24T07:26:30;6.60;;;6.00;;
4533;SDS011;2279;51.448;7.306;2023-07-24T07:28:56;7.73;;;5.50;;
4533;SDS011;2279;51.448;7.306;2023-07-24T07:31:22;10.47;;;5.90;;
4533;SDS011;2279;51.448;7.306;2023-07-24T07:33:48;5.80;;;5.20;;
4533;SDS011;2279;51.448;7.306;2023-07-24T07:36:14;11.13;;;5.70;;
4533;SDS011;2279;51.448;7.306;2023-07-24T07:38:40;7.90;;;6.10;;
4533;SDS011;2279;51.448;7.306;2023-07-24T07:41:06;6.83;;;5.07;;
4533;SDS011;2279;51.448;7.306;2023-07-24T07:43:34;7.63;;;4.83;;
4533;SDS011;2279;51.448;7.306;2023-07-24T07:46:02;6.33;;;5.73;;
4533;SDS011;2279;51.448;7.306;2023-07-24T07:48:28;8.63;;;5.80;;
4533;SDS011;2279;51.448;7.306;2023-07-24T07:50:55;6.03;;;5.30;;
4533;SDS011;2279;51.448;7.306;2023-07-24T07:53:21;7.87;;;5.80;;
4533;SDS011;2279;51.448;7.306;2023-07-24T07:55:54;6.00;;;5.17;;
4533;SDS011;2279;51.448;7.306;2023-07-24T07:58:21;7.37;;;5.00;;
4533;SDS011;2279;51.448;7.306;2023-07-24T08:00:48;7.57;;;5.67;;
4533;SDS011;2279;51.448;7.306;2023-07-24T08:03:13;7.90;;;5.93;;
4533;SDS011;2279;51.448;7.306;2023-07-24T08:05:39;9.83;;;5.50;;
4533;SDS011;2279;51.448;7.306;2023-07-24T08:08:05;7.53;;;5.90;;
4533;SDS011;2279;51.448;7.306;2023-07-24T08:10:31;8.60;;;5.60;;
4533;SDS011;2279;51.448;7.306;2023-07-24T08:12:57;6.20;;;5.60;;
4533;SDS011;2279;51.448;7.306;2023-07-24T08:15:23;10.13;;;5.37;;
4533;SDS011;2279;51.448;7.306;2023-07-24T08:17:49;5.50;;;4.97;;
4533;SDS011;2279;51.448;7.306;2023-07-24T08:20:15;5.80;;;5.20;;
4533;SDS011;2279;51.448;7.306;2023-07-24T08:22:41;5.77;;;5.10;;
4533;SDS011;2279;51.448;7.306;2023-07-24T08:25:08;9.00;;;5.40;;
4533;SDS011;2279;51.448;7.306;2023-07-24T08:27:34;9.07;;;5.77;;
4533;SDS011;2279;51.448;7.306;2023-07-24T08:30:00;6.33;;;5.13;;
4533;SDS011;2279;51.448;7.306;2023-07-24T08:32:27;5.87;;;4.57;;
4533;SDS011;2279;51.448;7.306;2023-07-24T08:34:53;14.90;;;6.43;;
4533;SDS011;2279;51.448;7.306;2023-07-24T08:37:20;8.27;;;4.30;;
4533;SDS011;2279;51.448;7.306;2023-07-24T08:39:46;6.00;;;5.30;;
4533;SDS011;2279;51.448;7.306;2023-07-24T08:42:12;6.60;;;4.27;;
4533;SDS011;2279;51.448;7.306;2023-07-24T08:44:39;5.67;;;4.70;;
4533;SDS011;2279;51.448;7.306;2023-07-24T08:47:06;21.43;;;5.77;;
4533;SDS011;2279;51.448;7.306;2023-07-24T08:49:35;5.23;;;3.70;;
4533;SDS011;2279;51.448;7.306;2023-07-24T08:52:03;4.97;;;4.20;;
4533;SDS011;2279;51.448;7.306;2023-07-24T08:54:30;4.00;;;3.63;;
4533;SDS011;2279;51.448;7.306;2023-07-24T08:56:58;5.07;;;3.63;;
4533;SDS011;2279;51.448;7.306;2023-07-24T08:59:25;7.03;;;4.33;;
4533;SDS011;2279;51.448;7.306;2023-07-24T09:01:52;5.87;;;4.17;;
4533;SDS011;2279;51.448;7.306;2023-07-24T09:04:18;3.70;;;3.40;;
4533;SDS011;2279;51.448;7.306;2023-07-24T09:06:44;8.00;;;3.37;;
4533;SDS011;2279;51.448;7.306;2023-07-24T09:09:14;4.00;;;3.60;;
4533;SDS011;2279;51.448;7.306;2023-07-24T09:11:45;8.47;;;3.73;;
4533;SDS011;2279;51.448;7.306;2023-07-24T09:14:19;4.33;;;3.80;;
4533;SDS011;2279;51.448;7.306;2023-07-24T09:16:45;5.70;;;3.40;;
4533;SDS011;2279;51.448;7.306;2023-07-24T09:19:18;4.00;;;3.60;;
4533;SDS011;2279;51.448;7.306;2023-07-24T09:21:44;3.47;;;3.20;;
4533;SDS011;2279;51.448;7.306;2023-07-24T09:24:13;5.13;;;3.83;;
4533;SDS011;2279;51.448;7.306;2023-07-24T09:26:46;5.50;;;4.20;;
4533;SDS011;2279;51.448;7.306;2023-07-24T09:29:12;38.50;;;6.37;;
4533;SDS011;2279;51.448;7.306;2023-07-24T09:31:38;6.03;;;4.00;;
4533;SDS011;2279;51.448;7.306;2023-07-24T09:34:13;8.70;;;3.87;;
4533;SDS011;2279;51.448;7.306;2023-07-24T09:36:39;11.50;;;3.90;;
4533;SDS011;2279;51.448;7.306;2023-07-24T09:39:05;5.70;;;3.60;;
4533;SDS011;2279;51.448;7.306;2023-07-24T09:41:35;5.47;;;3.60;;
4533;SDS011;2279;51.448;7.306;2023-07-24T09:44:01;7.57;;;3.83;;
4533;SDS011;2279;51.448;7.306;2023-07-24T09:46:30;3.97;;;3.67;;
4533;SDS011;2279;51.448;7.306;2023-07-24T09:48:57;3.80;;;3.50;;
4533;SDS011;2279;51.448;7.306;2023-07-24T09:51:24;4.80;;;3.77;;
4533;SDS011;2279;51.448;7.306;2023-07-24T09:56:43;3.73;;;3.30;;
4533;SDS011;2279;51.448;7.306;2023-07-24T09:59:09;4.97;;;3.37;;
4533;SDS011;2279;51.448;7.306;2023-07-24T10:01:36;4.30;;;3.67;;
4533;SDS011;2279;51.448;7.306;2023-07-24T10:04:02;3.97;;;3.57;;
4533;SDS011;2279;51.448;7.306;2023-07-24T10:06:29;7.17;;;3.93;;
4533;SDS011;2279;51.448;7.306;2023-07-24T10:08:56;7.20;;;5.07;;
4533;SDS011;2279;51.448;7.306;2023-07-24T10:11:24;4.80;;;4.33;;
4533;SDS011;2279;51.448;7.306;2023-07-24T10:13:50;4.73;;;4.43;;
4533;SDS011;2279;51.448;7.306;2023-07-24T10:16:17;5.63;;;4.77;;
4533;SDS011;2279;51.448;7.306;2023-07-24T10:18:44;4.90;;;4.50;;
4533;SDS011;2279;51.448;7.306;2023-07-24T10:21:11;5.07;;;4.40;;
4533;SDS011;2279;51.448;7.306;2023-07-24T10:23:42;5.70;;;4.30;;
4533;SDS011;2279;51.448;7.306;2023-07-24T10:26:09;5.07;;;4.60;;
4533;SDS011;2279;51.448;7.306;2023-07-24T10:28:39;5.73;;;4.90;;
4533;SDS011;2279;51.448;7.306;2023-07-24T10:31:06;6.03;;;5.43;;
4533;SDS011;2279;51.448;7.306;2023-07-24T10:33:34;6.37;;;5.77;;
4533;SDS011;2279;51.448;7.306;2023-07-24T10:36:06;5.00;;;4.60;;
4533;SDS011;2279;51.448;7.306;2023-07-24T10:38:36;6.47;;;5.77;;
4533;SDS011;2279;51.448;7.306;2023-07-24T10:41:04;6.63;;;5.50;;
4533;SDS011;2279;51.448;7.306;2023-07-24T10:43:40;9.07;;;6.30;;
4533;SDS011;2279;51.448;7.306;2023-07-24T10:46:06;6.30;;;5.00;;
4533;SDS011;2279;51.448;7.306;2023-07-24T10:48:32;9.33;;;5.03;;
4533;SDS011;2279;51.448;7.306;2023-07-24T10:50:58;5.03;;;4.53;;
4533;SDS011;2279;51.448;7.306;2023-07-24T10:53:32;7.13;;;4.70;;
4533;SDS011;2279;51.448;7.306;2023-07-24T10:56:00;4.90;;;4.40;;
4533;SDS011;2279;51.448;7.306;2023-07-24T10:58:26;6.33;;;5.10;;
4533;SDS011;2279;51.448;7.306;2023-07-24T11:00:52;5.00;;;4.60;;
4533;SDS011;2279;51.448;7.306;2023-07-24T11:03:19;6.03;;;4.50;;
4533;SDS011;2279;51.448;7.306;2023-07-24T11:05:46;4.30;;;3.83;;
4533;SDS011;2279;51.448;7.306;2023-07-24T11:08:14;4.23;;;3.87;;
4533;SDS011;2279;51.448;7.306;2023-07-24T11:10:47;4.73;;;4.23;;
4533;SDS011;2279;51.448;7.306;2023-07-24T11:13:14;4.33;;;4.03;;
4533;SDS011;2279;51.448;7.306;2023-07-24T11:15:41;5.07;;;4.30;;
4533;SDS011;2279;51.448;7.306;2023-07-24T11:18:07;7.10;;;4.30;;
4533;SDS011;2279;51.448;7.306;2023-07-24T11:20:38;8.53;;;4.93;;
4533;SDS011;2279;51.448;7.306;2023-07-24T11:23:08;5.57;;;5.07;;
4533;SDS011;2279;51.448;7.306;2023-07-24T11:25:35;6.00;;;5.40;;
4533;SDS011;2279;51.448;7.306;2023-07-24T11:28:01;6.90;;;5.50;;
4533;SDS011;2279;51.448;7.306;2023-07-24T11:30:29;8.03;;;4.63;;
4533;SDS011;2279;51.448;7.306;2023-07-24T11:32:57;6.27;;;5.67;;
4533;SDS011;2279;51.448;7.306;2023-07-24T11:35:24;5.30;;;4.80;;
4533;SDS011;2279;51.448;7.306;2023-07-24T11:37:50;4.83;;;4.40;;
4533;SDS011;2279;51.448;7.306;2023-07-24T11:40:16;5.37;;;4.60;;
4533;SDS011;2279;51.448;7.306;2023-07-24T11:42:45;9.50;;;5.47;;
4533;SDS011;2279;51.448;7.306;2023-07-24T11:45:11;4.93;;;4.53;;
4533;SDS011;2279;51.448;7.306;2023-07-24T11:47:47;7.90;;;5.07;;
4533;SDS011;2279;51.448;7.306;2023-07-24T11:50:14;10.30;;;5.20;;
4533;SDS011;2279;51.448;7.306;2023-07-24T11:52:45;5.83;;;4.53;;
4533;SDS011;2279;51.448;7.306;2023-07-24T11:55:12;5.10;;;4.60;;
4533;SDS011;2279;51.448;7.306;2023-07-24T11:57:38;4.20;;;3.87;;
4533;SDS011;2279;51.448;7.306;2023-07-24T12:00:04;5.30;;;4.80;;
4533;SDS011;2279;51.448;7.306;2023-07-24T12:02:33;6.00;;;4.50;;
4533;SDS011;2279;51.448;7.306;2023-07-24T12:05:17;4.80;;;4.40;;
4533;SDS011;2279;51.448;7.306;2023-07-24T12:07:43;5.60;;;4.20;;
4533;SDS011;2279;51.448;7.306;2023-07-24T12:10:13;5.77;;;5.20;;
4533;SDS011;2279;51.448;7.306;2023-07-24T12:12:43;12.90;;;5.77;;
4533;SDS011;2279;51.448;7.306;2023-07-24T12:15:09;12.00;;;5.67;;
4533;SDS011;2279;51.448;7.306;2023-07-24T12:17:35;9.10;;;3.00;;
4533;SDS011;2279;51.448;7.306;2023-07-24T12:20:01;13.43;;;3.97;;
4533;SDS011;2279;51.448;7.306;2023-07-24T12:22:29;8.53;;;2.90;;
4533;SDS011;2279;51.448;7.306;2023-07-24T12:24:55;11.30;;;2.30;;
4533;SDS011;2279;51.448;7.306;2023-07-24T12:27:23;2.30;;;1.70;;
4533;SDS011;2279;51.448;7.306;2023-07-24T12:29:49;3.90;;;2.03;;
4533;SDS011;2279;51.448;7.306;2023-07-24T12:32:15;3.00;;;1.97;;
4533;SDS011;2279;51.448;7.306;2023-07-24T12:34:41;8.97;;;2.40;;
4533;SDS011;2279;51.448;7.306;2023-07-24T12:37:08;3.40;;;1.90;;
4533;SDS011;2279;51.448;7.306;2023-07-24T12:39:34;3.70;;;1.63;;
4533;SDS011;2279;51.448;7.306;2023-07-24T12:42:00;2.10;;;1.70;;
4533;SDS011;2279;51.448;7.306;2023-07-24T12:44:27;1.73;;;1.63;;
4533;SDS011;2279;51.448;7.306;2023-07-24T12:46:53;1.70;;;1.60;;
4533;SDS011;2279;51.448;7.306;2023-07-24T12:49:19;3.67;;;2.07;;
4533;SDS011;2279;51.448;7.306;2023-07-24T12:51:45;3.50;;;1.77;;
4533;SDS011;2279;51.448;7.306;2023-07-24T12:54:11;3.10;;;1.70;;
4533;SDS011;2279;51.448;7.306;2023-07-24T12:56:38;2.80;;;1.57;;
4533;SDS011;2279;51.448;7.306;2023-07-24T12:59:06;1.90;;;1.80;;
4533;SDS011;2279;51.448;7.306;2023-07-24T13:01:32;6.30;;;1.83;;
4533;SDS011;2279;51.448;7.306;2023-07-24T13:03:59;2.30;;;1.60;;
4533;SDS011;2279;51.448;7.306;2023-07-24T13:06:25;1.60;;;1.40;;
4533;SDS011;2279;51.448;7.306;2023-07-24T13:08:51;3.27;;;1.77;;
4533;SDS011;2279;51.448;7.306;2023-07-24T13:11:17;3.07;;;1.90;;
4533;SDS011;2279;51.448;7.306;2023-07-24T13:13:43;2.00;;;1.90;;
4533;SDS011;2279;51.448;7.306;2023-07-24T13:16:09;5.83;;;2.23;;
4533;SDS011;2279;51.448;7.306;2023-07-24T13:18:36;8.17;;;2.13;;
4533;SDS011;2279;51.448;7.306;2023-07-24T13:21:02;2.43;;;2.23;;
4533;SDS011;2279;51.448;7.306;2023-07-24T13:23:28;3.00;;;1.80;;
4533;SDS011;2279;51.448;7.306;2023-07-24T13:25:55;2.57;;;1.67;;
4533;SDS011;2279;51.448;7.306;2023-07-24T13:28:22;2.00;;;1.53;;
4533;SDS011;2279;51.448;7.306;2023-07-24T13:30:48;2.20;;;2.00;;
4533;SDS011;2279;51.448;7.306;2023-07-24T13:33:14;1.90;;;1.80;;
4533;SDS011;2279;51.448;7.306;2023-07-24T13:35:40;2.73;;;1.47;;
4533;SDS011;2279;51.448;7.306;2023-07-24T13:38:09;2.17;;;1.80;;
4533;SDS011;2279;51.448;7.306;2023-07-24T13:40:36;2.00;;;1.90;;
4533;SDS011;2279;51.448;7.306;2023-07-24T13:43:02;3.67;;;1.70;;
4533;SDS011;2279;51.448;7.306;2023-07-24T13:45:28;3.00;;;1.50;;
4533;SDS011;2279;51.448;7.306;2023-07-24T13:47:56;1.80;;;1.70;;
4533;SDS011;2279;51.448;7.306;2023-07-24T13:50:22;2.03;;;1.83;;
4533;SDS011;2279;51.448;7.306;2023-07-24T13:52:48;2.30;;;1.70;;
4533;SDS011;2279;51.448;7.306;2023-07-24T13:55:14;3.40;;;1.80;;
4533;SDS011;2279;51.448;7.306;2023-07-24T13:57:40;4.90;;;2.10;;
4533;SDS011;2279;51.448;7.306;2023-07-24T14:00:06;2.87;;;2.20;;
4533;SDS011;2279;51.448;7.306;2023-07-24T14:02:33;2.20;;;2.10;;
4533;SDS011;2279;51.448;7.306;2023-07-24T14:04:59;7.50;;;2.47;;
4533;SDS011;2279;51.448;7.306;2023-07-24T14:07:24;2.97;;;2.67;;
4533;SDS011;2279;51.448;7.306;2023-07-24T14:09:50;3.97;;;2.30;;
4533;SDS011;2279;51.448;7.306;2023-07-24T14:12:16;2.00;;;1.90;;
4533;SDS011;2279;51.448;7.306;2023-07-24T14:14:42;2.50;;;2.30;;
4533;SDS011;2279;51.448;7.306;2023-07-24T14:17:08;2.53;;;2.33;;
4533;SDS011;2279;51.448;7.306;2023-07-24T14:19:34;8.00;;;2.20;;
4533;SDS011;2279;51.448;7.306;2023-07-24T14:22:00;4.03;;;2.13;;
4533;SDS011;2279;51.448;7.306;2023-07-24T14:24:26;2.30;;;2.10;;
4533;SDS011;2279;51.448;7.306;2023-07-24T14:26:52;2.90;;;2.50;;
4533;SDS011;2279;51.448;7.306;2023-07-24T14:29:18;3.87;;;2.47;;
4533;SDS011;2279;51.448;7.306;2023-07-24T14:31:44;3.30;;;2.30;;
4533;SDS011;2279;51.448;7.306;2023-07-24T14:34:10;3.67;;;2.30;;
4533;SDS011;2279;51.448;7.306;2023-07-24T14:36:37;2.93;;;2.53;;
4533;SDS011;2279;51.448;7.306;2023-07-24T14:39:04;2.70;;;2.53;;
4533;SDS011;2279;51.448;7.306;2023-07-24T14:41:31;3.30;;;2.40;;
4533;SDS011;2279;51.448;7.306;2023-07-24T14:43:57;2.57;;;2.37;;
4533;SDS011;2279;51.448;7.306;2023-07-24T14:46:23;2.67;;;2.47;;
4533;SDS011;2279;51.448;7.306;2023-07-24T14:48:49;2.70;;;2.50;;
4533;SDS011;2279;51.448;7.306;2023-07-24T14:51:15;9.10;;;2.80;;
4533;SDS011;2279;51.448;7.306;2023-07-24T14:53:41;3.23;;;2.97;;
4533;SDS011;2279;51.448;7.306;2023-07-24T14:56:07;3.17;;;2.97;;
4533;SDS011;2279;51.448;7.306;2023-07-24T14:58:34;10.33;;;4.17;;
4533;SDS011;2279;51.448;7.306;2023-07-24T15:01:00;3.90;;;3.60;;
4533;SDS011;2279;51.448;7.306;2023-07-24T15:03:27;3.77;;;3.57;;
4533;SDS011;2279;51.448;7.306;2023-07-24T15:05:53;4.13;;;3.83;;
4533;SDS011;2279;51.448;7.306;2023-07-24T15:08:21;4.37;;;4.07;;
4533;SDS011;2279;51.448;7.306;2023-07-24T15:10:47;4.30;;;4.00;;
4533;SDS011;2279;51.448;7.306;2023-07-24T15:13:13;9.97;;;4.27;;
4533;SDS011;2279;51.448;7.306;2023-07-24T15:15:39;7.10;;;5.23;;
4533;SDS011;2279;51.448;7.306;2023-07-24T15:18:04;11.20;;;7.07;;